createdAt,value
2022-07-27T00:02:32.266Z,100.00
2022-07-27T00:05:40.911Z,100.00
2022-07-27T00:08:49.622Z,100.00
2022-07-27T00:11:58.093Z,100.00
2022-07-27T00:15:10.789Z,100.00
2022-07-27T00:18:19.310Z,100.00
2022-07-27T00:21:27.649Z,100.00
2022-07-27T00:24:35.890Z,100.00
2022-07-27T00:27:44.328Z,100.00
2022-07-27T00:30:54.159Z,100.00
2022-07-27T00:34:02.663Z,100.00
2022-07-27T00:37:11.088Z,100.00
2022-07-27T00:40:19.653Z,100.00
2022-07-27T00:43:28.230Z,100.00
2022-07-27T00:46:38.315Z,100.00
2022-07-27T00:49:46.808Z,100.00
2022-07-27T00:52:56.354Z,100.00
2022-07-27T00:56:05.046Z,100.00
2022-07-27T00:59:15.414Z,100.00
2022-07-27T01:02:26.363Z,100.00
2022-07-27T01:05:42.714Z,100.00
2022-07-27T01:08:52.635Z,100.00
2022-07-27T01:12:01.096Z,100.00
2022-07-27T01:15:10.501Z,100.00
2022-07-27T01:18:31.945Z,100.00
2022-07-27T01:21:41.599Z,100.00
2022-07-27T01:24:51.362Z,100.00
2022-07-27T01:27:59.739Z,100.00
2022-07-27T01:31:08.203Z,100.00
2022-07-27T01:34:16.770Z,100.00
2022-07-27T01:37:26.456Z,100.00
2022-07-27T01:40:36.827Z,100.00
2022-07-27T01:43:45.626Z,100.00
2022-07-27T01:46:54.115Z,100.00
2022-07-27T01:50:02.890Z,100.00
2022-07-27T01:53:12.678Z,100.00
2022-07-27T01:56:21.252Z,100.00
2022-07-27T01:59:29.704Z,100.00
2022-07-27T02:02:38.126Z,100.00
2022-07-27T02:05:46.551Z,100.00
2022-07-27T02:08:56.206Z,100.00
2022-07-27T02:12:22.381Z,100.00
2022-07-27T02:15:42.226Z,100.00
2022-07-27T02:18:51.640Z,100.00
2022-07-27T02:22:00.000Z,100.00
2022-07-27T02:25:12.347Z,100.00
2022-07-27T02:28:20.518Z,100.00
2022-07-27T02:31:32.986Z,100.00
2022-07-27T02:34:42.452Z,100.00
2022-07-27T02:37:51.255Z,100.00
2022-07-27T02:41:00.918Z,100.00
2022-07-27T02:44:09.620Z,100.00
2022-07-27T02:47:18.146Z,100.00
2022-07-27T02:50:26.640Z,100.00
2022-07-27T02:53:35.128Z,100.00
2022-07-27T02:56:44.776Z,100.00
2022-07-27T02:59:53.216Z,100.00
2022-07-27T03:03:05.568Z,100.00
2022-07-27T03:06:14.241Z,100.00
2022-07-27T03:09:32.914Z,100.00
2022-07-27T03:12:45.076Z,100.00
2022-07-27T03:15:53.487Z,100.00
2022-07-27T03:19:02.781Z,100.00
2022-07-27T03:22:11.195Z,100.00
2022-07-27T03:25:19.393Z,100.00
2022-07-27T03:28:29.030Z,100.00
2022-07-27T03:31:37.494Z,100.00
2022-07-27T03:34:45.747Z,100.00
2022-07-27T03:37:53.968Z,100.00
2022-07-27T03:41:02.526Z,100.00
2022-07-27T03:44:12.252Z,100.00
2022-07-27T03:47:20.552Z,100.00
2022-07-27T03:50:28.809Z,100.00
2022-07-27T03:53:37.387Z,100.00
2022-07-27T03:56:45.625Z,100.00
2022-07-27T03:59:55.235Z,100.00
2022-07-27T04:03:03.429Z,100.00
2022-07-27T04:06:11.838Z,100.00
2022-07-27T04:09:19.996Z,100.00
2022-07-27T04:12:29.502Z,100.00
2022-07-27T04:15:39.422Z,100.00
2022-07-27T04:18:47.553Z,100.00
2022-07-27T04:21:55.763Z,100.00
2022-07-27T04:25:04.424Z,100.00
2022-07-27T04:28:12.570Z,100.00
2022-07-27T04:31:22.321Z,100.00
2022-07-27T04:34:30.640Z,100.00
2022-07-27T04:37:39.019Z,100.00
2022-07-27T04:40:47.448Z,100.00
2022-07-27T04:43:55.641Z,100.00
2022-07-27T04:47:05.545Z,100.00
2022-07-27T04:50:13.916Z,100.00
2022-07-27T04:53:24.573Z,100.00
2022-07-27T04:56:32.752Z,100.00
2022-07-27T04:59:41.038Z,100.00
2022-07-27T05:02:50.729Z,100.00
2022-07-27T05:06:01.607Z,100.00
2022-07-27T05:09:10.404Z,100.00
2022-07-27T05:12:19.716Z,100.00
2022-07-27T05:15:28.235Z,100.00
2022-07-27T05:18:38.001Z,100.00
2022-07-27T05:21:46.515Z,100.00
2022-07-27T05:24:54.729Z,100.00
2022-07-27T05:28:03.073Z,100.00
2022-07-27T05:31:15.800Z,100.00
2022-07-27T05:34:25.624Z,100.00
2022-07-27T05:37:34.037Z,100.00
2022-07-27T05:40:45.166Z,100.00
2022-07-27T05:43:55.378Z,100.00
2022-07-27T05:47:05.941Z,100.00
2022-07-27T05:50:17.629Z,100.00
2022-07-27T05:53:26.177Z,100.00
2022-07-27T05:56:35.380Z,100.00
2022-07-27T05:59:43.954Z,100.00
2022-07-27T06:02:52.457Z,100.00
2022-07-27T06:06:19.698Z,100.00
2022-07-27T06:09:28.202Z,100.00
2022-07-27T06:12:40.765Z,98.83
2022-07-27T06:15:49.174Z,95.16
2022-07-27T06:18:57.857Z,95.40
2022-07-27T06:22:07.633Z,91.96
2022-07-27T06:25:17.030Z,90.56
2022-07-27T06:28:26.473Z,88.51
2022-07-27T06:31:35.361Z,85.18
2022-07-27T06:34:44.264Z,86.30
2022-07-27T06:37:54.062Z,85.70
2022-07-27T06:41:02.712Z,87.16
2022-07-27T06:44:11.266Z,88.35
2022-07-27T06:47:19.737Z,88.64
2022-07-27T06:50:34.507Z,88.43
2022-07-27T06:53:44.773Z,89.20
2022-07-27T06:56:53.030Z,87.73
2022-07-27T07:00:01.224Z,88.70
2022-07-27T07:03:10.167Z,89.63
2022-07-27T07:06:18.451Z,83.64
2022-07-27T07:09:29.044Z,78.17
2022-07-27T07:12:37.284Z,71.40
2022-07-27T07:15:45.808Z,71.46
2022-07-27T07:18:53.979Z,65.23
2022-07-27T07:22:02.344Z,63.30
2022-07-27T07:25:12.482Z,63.58
2022-07-27T07:28:22.348Z,66.50
2022-07-27T07:31:30.674Z,70.21
2022-07-27T07:34:39.197Z,70.67
2022-07-27T07:37:48.126Z,72.41
2022-07-27T07:41:00.324Z,75.24
2022-07-27T07:44:10.016Z,65.67
2022-07-27T07:47:18.567Z,71.89
2022-07-27T07:50:27.585Z,70.99
2022-07-27T07:53:41.186Z,70.51
2022-07-27T07:56:51.663Z,65.53
2022-07-27T08:00:00.011Z,66.23
2022-07-27T08:03:08.681Z,65.83
2022-07-27T08:06:17.241Z,63.44
2022-07-27T08:09:28.420Z,64.69
2022-07-27T08:12:39.226Z,68.28
2022-07-27T08:15:47.433Z,69.91
2022-07-27T08:18:55.787Z,70.02
2022-07-27T08:22:04.367Z,68.65
2022-07-27T08:25:13.048Z,68.62
2022-07-27T08:28:22.908Z,67.66
2022-07-27T08:31:52.553Z,67.30
2022-07-27T08:34:59.506Z,64.29
2022-07-27T08:38:10.434Z,62.18
2022-07-27T08:41:26.065Z,62.12
2022-07-27T08:44:39.624Z,61.14
2022-07-27T08:47:48.773Z,60.62
2022-07-27T08:50:58.066Z,62.86
2022-07-27T08:54:07.150Z,60.45
2022-07-27T08:57:15.517Z,58.97
2022-07-27T09:00:25.127Z,62.32
2022-07-27T09:03:33.959Z,58.05
2022-07-27T09:06:45.578Z,58.23
2022-07-27T09:10:01.421Z,57.73
2022-07-27T09:13:23.473Z,58.93
2022-07-27T09:17:14.989Z,57.98
2022-07-27T09:20:05.465Z,57.52
2022-07-27T09:23:26.544Z,51.94
2022-07-27T09:26:35.558Z,48.83
2022-07-27T09:29:43.864Z,50.33
2022-07-27T09:33:00.802Z,48.16
2022-07-27T09:36:11.162Z,49.13
2022-07-27T09:39:22.034Z,49.75
2022-07-27T09:43:05.544Z,46.69
2022-07-27T09:46:08.229Z,47.92
2022-07-27T09:49:31.708Z,47.96
2022-07-27T09:52:40.049Z,50.88
2022-07-27T09:56:00.344Z,51.35
2022-07-27T09:59:08.769Z,53.38
2022-07-27T10:02:17.328Z,52.64
2022-07-27T10:05:27.238Z,50.28
2022-07-27T10:08:37.573Z,49.77
2022-07-27T10:11:47.219Z,50.48
2022-07-27T10:14:55.454Z,51.52
2022-07-27T10:18:17.221Z,54.17
2022-07-27T10:21:28.064Z,54.32
2022-07-27T10:24:37.479Z,56.63
2022-07-27T10:27:49.580Z,56.67
2022-07-27T10:31:18.643Z,54.64
2022-07-27T10:34:40.028Z,53.51
2022-07-27T10:38:09.925Z,51.41
2022-07-27T10:41:27.571Z,53.35
2022-07-27T10:44:36.190Z,51.98
2022-07-27T10:47:47.414Z,51.75
2022-07-27T10:50:56.365Z,50.54
2022-07-27T10:54:22.221Z,51.02
2022-07-27T10:57:31.786Z,50.49
2022-07-27T11:01:00.659Z,50.09
2022-07-27T11:04:22.389Z,50.46
2022-07-27T11:07:43.789Z,49.19
2022-07-27T11:10:55.487Z,49.65
2022-07-27T11:14:03.898Z,51.53
2022-07-27T11:20:40.978Z,50.36
2022-07-27T11:23:52.377Z,50.33
2022-07-27T11:27:02.192Z,52.44
2022-07-27T11:30:29.005Z,49.58
2022-07-27T11:33:38.373Z,50.97
2022-07-27T11:36:50.232Z,50.13
2022-07-27T11:40:07.548Z,49.61
2022-07-27T11:43:39.046Z,49.97
2022-07-27T11:46:50.820Z,46.85
2022-07-27T11:50:07.568Z,47.85
2022-07-27T11:53:33.903Z,49.58
2022-07-27T11:56:46.547Z,50.70
2022-07-27T11:59:56.355Z,51.47
2022-07-27T12:03:05.673Z,52.66
2022-07-27T12:06:14.759Z,52.97
2022-07-27T12:09:24.570Z,52.10
2022-07-27T12:12:35.567Z,52.22
2022-07-27T12:15:46.785Z,52.48
2022-07-27T12:18:55.229Z,52.49
2022-07-27T12:22:03.659Z,51.87
2022-07-27T12:25:29.503Z,55.23
2022-07-27T12:28:37.944Z,51.27
2022-07-27T12:31:51.040Z,51.22
2022-07-27T12:35:00.880Z,52.79
2022-07-27T12:38:10.999Z,52.63
2022-07-27T12:41:25.745Z,51.63
2022-07-27T12:44:36.484Z,50.44
2022-07-27T12:47:47.313Z,50.86
2022-07-27T12:51:02.553Z,51.13
2022-07-27T12:54:11.378Z,51.57
2022-07-27T12:57:39.633Z,48.50
2022-07-27T13:00:48.895Z,46.96
2022-07-27T13:03:58.886Z,48.74
2022-07-27T13:07:07.102Z,48.89
2022-07-27T13:10:19.022Z,48.95
2022-07-27T13:13:27.455Z,48.96
2022-07-27T13:16:36.355Z,49.20
2022-07-27T13:19:46.326Z,50.45
2022-07-27T13:22:55.782Z,50.45
2022-07-27T13:26:04.044Z,49.46
2022-07-27T13:29:12.682Z,51.79
2022-07-27T13:32:21.417Z,50.79
2022-07-27T13:35:31.295Z,49.79
2022-07-27T13:38:39.607Z,50.89
2022-07-27T13:41:52.247Z,49.77
2022-07-27T13:45:09.779Z,50.00
2022-07-27T13:48:18.918Z,49.33
2022-07-27T13:51:28.645Z,50.71
2022-07-27T13:54:37.346Z,51.65
2022-07-27T13:57:46.602Z,51.33
2022-07-27T14:00:55.137Z,50.73
2022-07-27T14:04:06.484Z,51.45
2022-07-27T14:07:16.651Z,52.18
2022-07-27T14:10:39.991Z,50.89
2022-07-27T14:13:48.516Z,50.90
2022-07-27T14:16:56.725Z,51.62
2022-07-27T14:20:06.440Z,50.45
2022-07-27T14:23:16.513Z,50.20
2022-07-27T14:26:24.867Z,53.05
2022-07-27T14:29:33.751Z,51.30
2022-07-27T14:32:42.151Z,50.73
2022-07-27T14:35:50.922Z,51.46
2022-07-27T14:39:00.569Z,51.73
2022-07-27T14:42:08.952Z,51.36
2022-07-27T14:45:17.255Z,51.54
2022-07-27T14:48:42.591Z,52.77
2022-07-27T14:51:54.618Z,52.89
2022-07-27T14:55:04.784Z,52.00
2022-07-27T14:58:13.866Z,52.68
2022-07-27T15:01:22.220Z,50.52
2022-07-27T15:04:30.693Z,50.92
2022-07-27T15:07:39.728Z,50.52
2022-07-27T15:10:50.125Z,51.03
2022-07-27T15:13:58.681Z,52.01
2022-07-27T15:17:07.355Z,50.73
2022-07-27T15:20:15.709Z,52.27
2022-07-27T15:23:24.935Z,51.88
2022-07-27T15:26:35.084Z,50.55
2022-07-27T15:29:43.310Z,49.19
2022-07-27T15:32:52.840Z,50.79
2022-07-27T15:36:05.524Z,50.50
2022-07-27T15:39:14.784Z,50.21
2022-07-27T15:42:25.342Z,51.75
2022-07-27T15:45:38.327Z,50.53
2022-07-27T15:48:47.096Z,52.62
2022-07-27T15:51:55.768Z,52.07
2022-07-27T15:55:04.431Z,52.86
2022-07-27T15:58:19.420Z,52.94
2022-07-27T16:01:35.566Z,54.06
2022-07-27T16:04:44.381Z,55.00
2022-07-27T16:07:53.005Z,55.69
2022-07-27T16:11:01.539Z,55.98
2022-07-27T16:14:11.518Z,55.47
2022-07-27T16:17:20.035Z,55.13
2022-07-27T16:20:28.193Z,53.98
2022-07-27T16:23:37.444Z,54.37
2022-07-27T16:26:45.917Z,55.06
2022-07-27T16:29:55.642Z,55.24
2022-07-27T16:33:04.522Z,55.82
2022-07-27T16:36:13.631Z,55.48
2022-07-27T16:39:22.378Z,54.75
2022-07-27T16:42:33.864Z,54.76
2022-07-27T16:45:47.542Z,54.90
2022-07-27T16:48:56.102Z,55.59
2022-07-27T16:52:04.494Z,55.60
2022-07-27T16:55:13.069Z,54.04
2022-07-27T16:58:22.064Z,53.34
2022-07-27T17:01:32.514Z,52.38
2022-07-27T17:04:41.525Z,53.67
2022-07-27T17:07:52.375Z,53.24
2022-07-27T17:11:02.572Z,54.54
2022-07-27T17:14:14.364Z,54.03
2022-07-27T17:17:26.170Z,54.75
2022-07-27T17:20:35.507Z,52.53
2022-07-27T17:23:45.188Z,52.28
2022-07-27T17:26:53.698Z,49.38
2022-07-27T17:30:02.103Z,46.36
2022-07-27T17:33:13.218Z,44.93
2022-07-27T17:36:22.347Z,45.92
2022-07-27T17:39:31.708Z,48.35
2022-07-27T17:42:39.960Z,51.12
2022-07-27T17:45:48.822Z,54.28
2022-07-27T17:48:58.364Z,56.16
2022-07-27T17:52:08.411Z,56.39
2022-07-27T17:55:16.961Z,58.22
2022-07-27T17:58:30.202Z,57.52
2022-07-27T18:01:47.250Z,58.98
2022-07-27T18:04:57.951Z,60.00
2022-07-27T18:08:07.270Z,58.83
2022-07-27T18:11:15.863Z,61.72
2022-07-27T18:14:31.817Z,63.08
2022-07-27T18:17:41.999Z,64.20
2022-07-27T18:21:01.727Z,66.64
2022-07-27T18:24:10.649Z,67.50
2022-07-27T18:27:19.175Z,68.17
2022-07-27T18:30:28.867Z,69.41
2022-07-27T18:33:37.856Z,69.08
2022-07-27T18:36:47.654Z,69.54
2022-07-27T18:39:55.810Z,69.96
2022-07-27T18:43:06.587Z,69.77
2022-07-27T18:46:17.329Z,71.24
2022-07-27T18:49:27.018Z,71.70
2022-07-27T18:52:36.827Z,73.67
2022-07-27T18:55:45.534Z,73.70
2022-07-27T18:58:54.793Z,75.75
2022-07-27T19:02:03.718Z,79.32
2022-07-27T19:05:18.136Z,81.47
2022-07-27T19:08:39.339Z,80.64
2022-07-27T19:11:47.777Z,80.98
2022-07-27T19:14:57.941Z,82.82
2022-07-27T19:18:07.498Z,84.58
2022-07-27T19:21:16.590Z,86.81
2022-07-27T19:24:26.500Z,88.83
2022-07-27T19:27:38.295Z,89.82
2022-07-27T19:30:47.398Z,91.05
2022-07-27T19:33:56.765Z,92.27
2022-07-27T19:37:05.643Z,92.43
2022-07-27T19:40:43.536Z,91.61
2022-07-27T19:43:46.564Z,91.74
2022-07-27T19:46:56.594Z,91.31
2022-07-27T19:50:10.157Z,100.00
2022-07-27T19:53:18.606Z,100.00
2022-07-27T19:56:32.790Z,100.00
2022-07-27T19:59:55.611Z,92.92
2022-07-27T20:03:05.386Z,88.12
2022-07-27T20:06:14.183Z,85.21
2022-07-27T20:09:23.523Z,83.19
2022-07-27T20:12:33.607Z,81.94
2022-07-27T20:15:42.181Z,82.20
2022-07-27T20:18:50.773Z,82.39
2022-07-27T20:21:59.861Z,82.82
2022-07-27T20:25:10.690Z,82.92
2022-07-27T20:28:23.451Z,82.87
2022-07-27T20:31:31.769Z,84.13
2022-07-27T20:34:40.284Z,83.17
2022-07-27T20:37:48.650Z,83.51
2022-07-27T20:40:59.252Z,83.89
2022-07-27T20:44:09.364Z,85.29
2022-07-27T20:47:17.764Z,86.10
2022-07-27T20:50:26.559Z,86.53
2022-07-27T20:53:35.350Z,87.02
2022-07-27T20:56:44.039Z,87.61
2022-07-27T20:59:53.788Z,87.73
2022-07-27T21:03:02.000Z,87.94
2022-07-27T21:06:11.260Z,88.13
2022-07-27T21:09:20.484Z,87.77
2022-07-27T21:12:28.890Z,89.35
2022-07-27T21:15:38.452Z,90.07
2022-07-27T21:18:46.639Z,91.12
2022-07-27T21:21:55.329Z,92.67
2022-07-27T21:25:04.552Z,93.03
2022-07-27T21:28:16.938Z,93.64
2022-07-27T21:31:30.026Z,92.84
2022-07-27T21:34:38.618Z,93.28
2022-07-27T21:37:48.448Z,93.68
2022-07-27T21:41:00.034Z,93.66
2022-07-27T21:44:09.554Z,93.66
2022-07-27T21:47:19.442Z,94.98
2022-07-27T21:50:28.101Z,96.30
2022-07-27T21:53:41.432Z,96.88
2022-07-27T21:56:51.728Z,97.94
2022-07-27T22:00:00.568Z,98.64
2022-07-27T22:03:11.228Z,99.53
2022-07-27T22:06:22.657Z,100.00
2022-07-27T22:09:31.252Z,100.00
2022-07-27T22:12:39.946Z,100.00
2022-07-27T22:15:49.788Z,100.00
2022-07-27T22:19:00.932Z,100.00
2022-07-27T22:22:12.694Z,100.00
2022-07-27T22:25:21.212Z,100.00
2022-07-27T22:28:29.929Z,100.00
2022-07-27T22:31:39.061Z,100.00
2022-07-27T22:34:48.802Z,100.00
2022-07-27T22:37:56.945Z,100.00
2022-07-27T22:41:05.795Z,100.00
2022-07-27T22:44:14.370Z,100.00
2022-07-27T22:47:25.711Z,100.00
2022-07-27T22:50:39.204Z,100.00
2022-07-27T22:53:47.506Z,100.00
2022-07-27T22:56:55.793Z,100.00
2022-07-27T23:00:06.250Z,100.00
2022-07-27T23:03:19.688Z,100.00
2022-07-27T23:06:29.402Z,100.00
2022-07-27T23:09:39.136Z,100.00
2022-07-27T23:12:47.617Z,100.00
2022-07-27T23:15:55.834Z,100.00
2022-07-27T23:19:04.190Z,100.00
2022-07-27T23:22:17.254Z,100.00
2022-07-27T23:25:35.232Z,100.00
2022-07-27T23:28:45.137Z,100.00
2022-07-27T23:31:53.867Z,100.00
2022-07-27T23:35:02.604Z,100.00
2022-07-27T23:38:12.434Z,100.00
2022-07-27T23:41:20.937Z,100.00
2022-07-27T23:44:29.833Z,100.00
2022-07-27T23:47:38.496Z,100.00
2022-07-27T23:50:47.309Z,100.00
2022-07-27T23:53:57.249Z,100.00
2022-07-27T23:57:07.193Z,100.00
